YWLM/NTL METAR and TAF weather

Enter ICAO airport designator
Station Type Date Time Source
YWLM METAR 2019/08/19 12:30 UTC NOAA

YWLM 191230Z AUTO 27011KT 9999 // NCD 10/M04 Q1023


Station Type Date Time Source
YWLM Decoded METAR 2019/08/19 12:30 UTC NOAA

Station name not available
Aug 19, 2019 - 08:30 AM EDT / 2019.08.19 1230 UTC
Wind: from the W (270 degrees) at 13 MPH (11 KT):0
Visibility: greater than 7 mile(s):0
Temperature: 50 F (10 C)
Dew Point: 24 F (-4 C)
Relative Humidity: 37%
Pressure (altimeter): 30.21 in. Hg (1023 hPa)
ob: YWLM 191230Z AUTO 27011KT 9999 // NCD 10/M04 Q1023
cycle: 12

Station Type Date Time Source
YWLM TAF 2019/08/19 11:15 UTC NOAA

TAF
AMD YWLM 191112Z 1911/2012 29010KT CAVOK
FM192200 29017G27KT CAVOK
FM200000 29015KT CAVOK
FM200800 27012KT CAVOK

Example: see airport list